sensor_id;sensor_type;location;lat;lon;timestamp;P1;durP1;ratioP1;P2;durP2;ratioP2
80392;SDS011;69719;45.544;10.218;2023-07-20T00:02:19;14.93;;;7.00;;
80392;SDS011;69719;45.544;10.218;2023-07-20T00:04:44;16.83;;;9.02;;
80392;SDS011;69719;45.544;10.218;2023-07-20T00:07:10;22.08;;;11.68;;
80392;SDS011;69719;45.544;10.218;2023-07-20T00:09:35;20.63;;;10.27;;
80392;SDS011;69719;45.544;10.218;2023-07-20T00:12:01;24.52;;;11.73;;
80392;SDS011;69719;45.544;10.218;2023-07-20T00:14:27;21.10;;;10.57;;
80392;SDS011;69719;45.544;10.218;2023-07-20T00:16:52;24.13;;;11.77;;
80392;SDS011;69719;45.544;10.218;2023-07-20T00:19:23;22.75;;;12.07;;
80392;SDS011;69719;45.544;10.218;2023-07-20T00:21:49;16.02;;;9.00;;
80392;SDS011;69719;45.544;10.218;2023-07-20T00:24:15;20.95;;;10.15;;
80392;SDS011;69719;45.544;10.218;2023-07-20T00:26:40;20.63;;;11.98;;
80392;SDS011;69719;45.544;10.218;2023-07-20T00:29:06;19.90;;;10.73;;
80392;SDS011;69719;45.544;10.218;2023-07-20T00:31:31;20.77;;;10.98;;
80392;SDS011;69719;45.544;10.218;2023-07-20T00:33:57;24.88;;;13.93;;
80392;SDS011;69719;45.544;10.218;2023-07-20T00:36:22;15.73;;;9.43;;
80392;SDS011;69719;45.544;10.218;2023-07-20T00:38:48;16.27;;;8.50;;
80392;SDS011;69719;45.544;10.218;2023-07-20T00:41:13;15.13;;;8.07;;
80392;SDS011;69719;45.544;10.218;2023-07-20T00:43:39;14.35;;;8.27;;
80392;SDS011;69719;45.544;10.218;2023-07-20T00:46:05;14.75;;;8.40;;
80392;SDS011;69719;45.544;10.218;2023-07-20T00:48:31;15.00;;;9.73;;
80392;SDS011;69719;45.544;10.218;2023-07-20T00:50:58;18.23;;;8.95;;
80392;SDS011;69719;45.544;10.218;2023-07-20T00:53:25;17.63;;;8.85;;
80392;SDS011;69719;45.544;10.218;2023-07-20T00:55:51;16.13;;;8.85;;
80392;SDS011;69719;45.544;10.218;2023-07-20T00:58:17;19.50;;;9.52;;
80392;SDS011;69719;45.544;10.218;2023-07-20T01:00:42;14.82;;;9.30;;
80392;SDS011;69719;45.544;10.218;2023-07-20T01:03:08;16.52;;;8.52;;
80392;SDS011;69719;45.544;10.218;2023-07-20T01:05:36;20.17;;;9.38;;
80392;SDS011;69719;45.544;10.218;2023-07-20T01:08:15;14.60;;;7.70;;
80392;SDS011;69719;45.544;10.218;2023-07-20T01:10:54;16.90;;;8.60;;
80392;SDS011;69719;45.544;10.218;2023-07-20T01:13:28;12.27;;;9.20;;
80392;SDS011;69719;45.544;10.218;2023-07-20T01:15:57;16.80;;;8.85;;
80392;SDS011;69719;45.544;10.218;2023-07-20T01:18:26;18.48;;;9.90;;
80392;SDS011;69719;45.544;10.218;2023-07-20T01:20:52;18.80;;;9.60;;
80392;SDS011;69719;45.544;10.218;2023-07-20T01:29:30;18.30;;;9.65;;
80392;SDS011;69719;45.544;10.218;2023-07-20T01:32:07;19.80;;;10.50;;
80392;SDS011;69719;45.544;10.218;2023-07-20T01:34:35;18.60;;;9.48;;
80392;SDS011;69719;45.544;10.218;2023-07-20T01:37:02;20.38;;;10.38;;
80392;SDS011;69719;45.544;10.218;2023-07-20T01:39:29;17.08;;;9.60;;
80392;SDS011;69719;45.544;10.218;2023-07-20T01:41:56;20.65;;;10.25;;
80392;SDS011;69719;45.544;10.218;2023-07-20T01:44:23;15.15;;;8.93;;
80392;SDS011;69719;45.544;10.218;2023-07-20T01:46:48;15.25;;;8.80;;
80392;SDS011;69719;45.544;10.218;2023-07-20T01:49:14;21.73;;;10.88;;
80392;SDS011;69719;45.544;10.218;2023-07-20T01:51:39;15.68;;;8.48;;
80392;SDS011;69719;45.544;10.218;2023-07-20T01:54:05;16.92;;;8.13;;
80392;SDS011;69719;45.544;10.218;2023-07-20T01:56:31;11.10;;;8.02;;
80392;SDS011;69719;45.544;10.218;2023-07-20T01:58:56;17.58;;;8.27;;
80392;SDS011;69719;45.544;10.218;2023-07-20T02:01:21;17.05;;;8.60;;
80392;SDS011;69719;45.544;10.218;2023-07-20T02:03:47;14.65;;;8.23;;
80392;SDS011;69719;45.544;10.218;2023-07-20T02:06:12;18.17;;;8.63;;
80392;SDS011;69719;45.544;10.218;2023-07-20T02:08:38;15.88;;;7.70;;
80392;SDS011;69719;45.544;10.218;2023-07-20T02:11:03;16.30;;;8.90;;
80392;SDS011;69719;45.544;10.218;2023-07-20T02:13:30;17.50;;;9.05;;
80392;SDS011;69719;45.544;10.218;2023-07-20T02:15:55;18.35;;;9.32;;
80392;SDS011;69719;45.544;10.218;2023-07-20T02:18:21;14.18;;;8.75;;
80392;SDS011;69719;45.544;10.218;2023-07-20T02:20:46;19.88;;;10.88;;
80392;SDS011;69719;45.544;10.218;2023-07-20T02:23:12;18.42;;;10.25;;
80392;SDS011;69719;45.544;10.218;2023-07-20T02:25:37;17.70;;;8.80;;
80392;SDS011;69719;45.544;10.218;2023-07-20T02:28:03;17.85;;;8.82;;
80392;SDS011;69719;45.544;10.218;2023-07-20T02:30:29;15.80;;;8.57;;
80392;SDS011;69719;45.544;10.218;2023-07-20T02:32:54;19.20;;;9.57;;
80392;SDS011;69719;45.544;10.218;2023-07-20T02:35:23;17.48;;;9.43;;
80392;SDS011;69719;45.544;10.218;2023-07-20T02:37:49;20.77;;;10.20;;
80392;SDS011;69719;45.544;10.218;2023-07-20T02:40:14;17.67;;;9.77;;
80392;SDS011;69719;45.544;10.218;2023-07-20T02:42:40;17.05;;;10.68;;
80392;SDS011;69719;45.544;10.218;2023-07-20T02:45:06;16.92;;;9.63;;
80392;SDS011;69719;45.544;10.218;2023-07-20T02:47:32;14.02;;;8.73;;
80392;SDS011;69719;45.544;10.218;2023-07-20T02:49:58;17.10;;;9.60;;
80392;SDS011;69719;45.544;10.218;2023-07-20T02:52:23;17.25;;;9.75;;
80392;SDS011;69719;45.544;10.218;2023-07-20T02:54:49;15.55;;;9.48;;
80392;SDS011;69719;45.544;10.218;2023-07-20T02:57:15;17.92;;;9.45;;
80392;SDS011;69719;45.544;10.218;2023-07-20T02:59:40;14.27;;;8.95;;
80392;SDS011;69719;45.544;10.218;2023-07-20T03:02:06;16.90;;;9.60;;
80392;SDS011;69719;45.544;10.218;2023-07-20T03:04:34;16.80;;;8.73;;
80392;SDS011;69719;45.544;10.218;2023-07-20T03:07:02;17.02;;;9.02;;
80392;SDS011;69719;45.544;10.218;2023-07-20T03:09:29;20.20;;;8.77;;
80392;SDS011;69719;45.544;10.218;2023-07-20T03:11:54;13.65;;;9.30;;
80392;SDS011;69719;45.544;10.218;2023-07-20T03:14:20;15.48;;;8.75;;
80392;SDS011;69719;45.544;10.218;2023-07-20T03:16:45;19.17;;;9.50;;
80392;SDS011;69719;45.544;10.218;2023-07-20T03:19:11;19.50;;;9.90;;
80392;SDS011;69719;45.544;10.218;2023-07-20T03:21:36;16.05;;;9.20;;
80392;SDS011;69719;45.544;10.218;2023-07-20T03:24:06;18.33;;;9.50;;
80392;SDS011;69719;45.544;10.218;2023-07-20T03:26:32;14.23;;;9.10;;
80392;SDS011;69719;45.544;10.218;2023-07-20T03:28:58;18.15;;;9.13;;
80392;SDS011;69719;45.544;10.218;2023-07-20T03:31:23;14.50;;;9.50;;
80392;SDS011;69719;45.544;10.218;2023-07-20T03:33:49;19.92;;;9.57;;
80392;SDS011;69719;45.544;10.218;2023-07-20T03:36:14;15.57;;;9.73;;
80392;SDS011;69719;45.544;10.218;2023-07-20T03:38:40;19.92;;;10.30;;
80392;SDS011;69719;45.544;10.218;2023-07-20T03:41:05;21.65;;;10.65;;
80392;SDS011;69719;45.544;10.218;2023-07-20T03:43:31;20.10;;;12.80;;
80392;SDS011;69719;45.544;10.218;2023-07-20T03:45:56;22.38;;;13.30;;
80392;SDS011;69719;45.544;10.218;2023-07-20T03:48:22;23.27;;;13.48;;
80392;SDS011;69719;45.544;10.218;2023-07-20T03:50:50;27.52;;;13.90;;
80392;SDS011;69719;45.544;10.218;2023-07-20T03:53:17;26.50;;;15.52;;
80392;SDS011;69719;45.544;10.218;2023-07-20T03:55:49;27.00;;;16.85;;
80392;SDS011;69719;45.544;10.218;2023-07-20T03:58:16;26.33;;;16.77;;
80392;SDS011;69719;45.544;10.218;2023-07-20T04:00:44;27.35;;;17.92;;
80392;SDS011;69719;45.544;10.218;2023-07-20T04:03:13;26.40;;;16.80;;
80392;SDS011;69719;45.544;10.218;2023-07-20T04:05:39;24.13;;;15.95;;
80392;SDS011;69719;45.544;10.218;2023-07-20T04:08:05;25.38;;;15.95;;
80392;SDS011;69719;45.544;10.218;2023-07-20T04:10:30;24.80;;;17.17;;
80392;SDS011;69719;45.544;10.218;2023-07-20T04:12:56;26.40;;;16.83;;
80392;SDS011;69719;45.544;10.218;2023-07-20T04:15:21;28.50;;;18.40;;
80392;SDS011;69719;45.544;10.218;2023-07-20T04:17:47;24.95;;;16.15;;
80392;SDS011;69719;45.544;10.218;2023-07-20T04:20:12;21.55;;;12.95;;
80392;SDS011;69719;45.544;10.218;2023-07-20T04:22:38;24.42;;;16.98;;
80392;SDS011;69719;45.544;10.218;2023-07-20T04:25:04;27.77;;;14.65;;
80392;SDS011;69719;45.544;10.218;2023-07-20T04:27:29;18.45;;;12.38;;
80392;SDS011;69719;45.544;10.218;2023-07-20T04:29:55;18.63;;;10.77;;
80392;SDS011;69719;45.544;10.218;2023-07-20T04:32:21;17.58;;;10.13;;
80392;SDS011;69719;45.544;10.218;2023-07-20T04:34:46;16.60;;;9.77;;
80392;SDS011;69719;45.544;10.218;2023-07-20T04:37:12;16.23;;;10.57;;
80392;SDS011;69719;45.544;10.218;2023-07-20T04:39:37;15.45;;;9.05;;
80392;SDS011;69719;45.544;10.218;2023-07-20T04:42:03;17.00;;;9.50;;
80392;SDS011;69719;45.544;10.218;2023-07-20T04:44:29;25.27;;;11.13;;
80392;SDS011;69719;45.544;10.218;2023-07-20T04:46:54;18.02;;;9.20;;
80392;SDS011;69719;45.544;10.218;2023-07-20T04:49:19;19.92;;;10.00;;
80392;SDS011;69719;45.544;10.218;2023-07-20T04:51:45;15.52;;;9.52;;
80392;SDS011;69719;45.544;10.218;2023-07-20T04:54:10;21.40;;;9.93;;
80392;SDS011;69719;45.544;10.218;2023-07-20T04:56:36;19.27;;;9.10;;
80392;SDS011;69719;45.544;10.218;2023-07-20T04:59:01;17.23;;;9.88;;
80392;SDS011;69719;45.544;10.218;2023-07-20T05:01:27;32.20;;;12.68;;
80392;SDS011;69719;45.544;10.218;2023-07-20T05:03:53;19.13;;;10.10;;
80392;SDS011;69719;45.544;10.218;2023-07-20T05:06:18;17.48;;;9.10;;
80392;SDS011;69719;45.544;10.218;2023-07-20T05:08:44;20.48;;;9.23;;
80392;SDS011;69719;45.544;10.218;2023-07-20T05:11:10;18.17;;;9.60;;
80392;SDS011;69719;45.544;10.218;2023-07-20T05:13:36;16.98;;;9.43;;
80392;SDS011;69719;45.544;10.218;2023-07-20T05:16:01;15.63;;;9.70;;
80392;SDS011;69719;45.544;10.218;2023-07-20T05:18:27;16.27;;;9.43;;
80392;SDS011;69719;45.544;10.218;2023-07-20T05:20:52;16.50;;;9.55;;
80392;SDS011;69719;45.544;10.218;2023-07-20T05:23:20;17.60;;;9.35;;
80392;SDS011;69719;45.544;10.218;2023-07-20T05:25:46;16.55;;;9.07;;
80392;SDS011;69719;45.544;10.218;2023-07-20T05:28:12;20.80;;;10.23;;
80392;SDS011;69719;45.544;10.218;2023-07-20T05:30:37;17.98;;;8.85;;
80392;SDS011;69719;45.544;10.218;2023-07-20T05:33:03;17.60;;;9.05;;
80392;SDS011;69719;45.544;10.218;2023-07-20T05:35:28;20.77;;;10.07;;
80392;SDS011;69719;45.544;10.218;2023-07-20T05:37:54;17.70;;;9.10;;
80392;SDS011;69719;45.544;10.218;2023-07-20T05:40:19;15.93;;;9.32;;
80392;SDS011;69719;45.544;10.218;2023-07-20T05:42:46;17.33;;;9.38;;
80392;SDS011;69719;45.544;10.218;2023-07-20T05:45:13;21.02;;;10.13;;
80392;SDS011;69719;45.544;10.218;2023-07-20T05:47:40;15.43;;;9.02;;
80392;SDS011;69719;45.544;10.218;2023-07-20T05:50:06;18.27;;;9.38;;
80392;SDS011;69719;45.544;10.218;2023-07-20T05:52:32;17.08;;;9.27;;
80392;SDS011;69719;45.544;10.218;2023-07-20T05:54:58;16.30;;;9.45;;
80392;SDS011;69719;45.544;10.218;2023-07-20T05:57:23;21.27;;;10.75;;
80392;SDS011;69719;45.544;10.218;2023-07-20T05:59:49;20.65;;;11.45;;
80392;SDS011;69719;45.544;10.218;2023-07-20T06:02:14;28.60;;;17.38;;
80392;SDS011;69719;45.544;10.218;2023-07-20T06:04:40;29.90;;;18.50;;
80392;SDS011;69719;45.544;10.218;2023-07-20T06:07:05;30.40;;;18.73;;
80392;SDS011;69719;45.544;10.218;2023-07-20T06:09:33;30.73;;;18.25;;
80392;SDS011;69719;45.544;10.218;2023-07-20T06:11:59;32.42;;;19.02;;
80392;SDS011;69719;45.544;10.218;2023-07-20T06:14:24;32.00;;;18.65;;
80392;SDS011;69719;45.544;10.218;2023-07-20T06:16:50;30.65;;;17.80;;
80392;SDS011;69719;45.544;10.218;2023-07-20T06:19:15;31.92;;;17.38;;
80392;SDS011;69719;45.544;10.218;2023-07-20T06:21:41;31.90;;;18.27;;
80392;SDS011;69719;45.544;10.218;2023-07-20T06:24:07;30.95;;;19.23;;
80392;SDS011;69719;45.544;10.218;2023-07-20T06:26:32;28.15;;;18.40;;
80392;SDS011;69719;45.544;10.218;2023-07-20T06:29:03;29.52;;;18.67;;
80392;SDS011;69719;45.544;10.218;2023-07-20T06:31:30;28.52;;;16.55;;
80392;SDS011;69719;45.544;10.218;2023-07-20T06:33:55;27.83;;;18.00;;
80392;SDS011;69719;45.544;10.218;2023-07-20T06:36:20;30.25;;;17.77;;
80392;SDS011;69719;45.544;10.218;2023-07-20T06:38:46;25.00;;;16.30;;
80392;SDS011;69719;45.544;10.218;2023-07-20T06:41:11;24.60;;;16.65;;
80392;SDS011;69719;45.544;10.218;2023-07-20T06:43:37;24.67;;;16.63;;
80392;SDS011;69719;45.544;10.218;2023-07-20T06:46:03;28.35;;;16.25;;
80392;SDS011;69719;45.544;10.218;2023-07-20T06:48:28;28.23;;;16.38;;
80392;SDS011;69719;45.544;10.218;2023-07-20T06:50:54;25.02;;;16.67;;
80392;SDS011;69719;45.544;10.218;2023-07-20T06:53:20;29.40;;;18.63;;
80392;SDS011;69719;45.544;10.218;2023-07-20T06:55:45;26.33;;;16.75;;
80392;SDS011;69719;45.544;10.218;2023-07-20T06:58:11;21.60;;;12.25;;
80392;SDS011;69719;45.544;10.218;2023-07-20T07:00:36;23.65;;;14.50;;
80392;SDS011;69719;45.544;10.218;2023-07-20T07:03:02;28.85;;;19.15;;
80392;SDS011;69719;45.544;10.218;2023-07-20T07:05:28;28.17;;;17.48;;
80392;SDS011;69719;45.544;10.218;2023-07-20T07:07:53;25.63;;;16.42;;
80392;SDS011;69719;45.544;10.218;2023-07-20T07:10:19;27.63;;;17.30;;
80392;SDS011;69719;45.544;10.218;2023-07-20T07:12:44;25.70;;;15.38;;
80392;SDS011;69719;45.544;10.218;2023-07-20T07:15:10;28.92;;;16.25;;
80392;SDS011;69719;45.544;10.218;2023-07-20T07:17:36;28.15;;;17.33;;
80392;SDS011;69719;45.544;10.218;2023-07-20T07:20:01;28.02;;;15.88;;
80392;SDS011;69719;45.544;10.218;2023-07-20T07:22:28;25.52;;;14.88;;
80392;SDS011;69719;45.544;10.218;2023-07-20T07:24:54;30.25;;;17.38;;
80392;SDS011;69719;45.544;10.218;2023-07-20T07:27:20;26.10;;;15.98;;
80392;SDS011;69719;45.544;10.218;2023-07-20T07:29:45;30.50;;;16.00;;
80392;SDS011;69719;45.544;10.218;2023-07-20T07:32:12;23.35;;;14.05;;
80392;SDS011;69719;45.544;10.218;2023-07-20T07:34:37;24.40;;;13.68;;
80392;SDS011;69719;45.544;10.218;2023-07-20T07:37:06;27.02;;;14.77;;
80392;SDS011;69719;45.544;10.218;2023-07-20T07:39:32;26.30;;;15.48;;
80392;SDS011;69719;45.544;10.218;2023-07-20T07:42:02;27.20;;;14.57;;
80392;SDS011;69719;45.544;10.218;2023-07-20T07:44:27;27.05;;;14.50;;
80392;SDS011;69719;45.544;10.218;2023-07-20T07:46:53;25.33;;;15.65;;
80392;SDS011;69719;45.544;10.218;2023-07-20T07:49:18;26.52;;;15.68;;
80392;SDS011;69719;45.544;10.218;2023-07-20T07:51:44;25.60;;;14.27;;
80392;SDS011;69719;45.544;10.218;2023-07-20T07:54:10;26.60;;;15.45;;
80392;SDS011;69719;45.544;10.218;2023-07-20T07:56:36;27.77;;;14.40;;
80392;SDS011;69719;45.544;10.218;2023-07-20T07:59:01;23.58;;;14.50;;
80392;SDS011;69719;45.544;10.218;2023-07-20T08:01:28;27.85;;;16.20;;
80392;SDS011;69719;45.544;10.218;2023-07-20T08:03:53;26.83;;;17.33;;
80392;SDS011;69719;45.544;10.218;2023-07-20T08:06:19;27.65;;;17.27;;
80392;SDS011;69719;45.544;10.218;2023-07-20T08:08:44;31.42;;;18.02;;
80392;SDS011;69719;45.544;10.218;2023-07-20T08:11:10;29.60;;;15.68;;
80392;SDS011;69719;45.544;10.218;2023-07-20T08:13:38;34.67;;;19.05;;
80392;SDS011;69719;45.544;10.218;2023-07-20T08:16:04;33.20;;;19.73;;
80392;SDS011;69719;45.544;10.218;2023-07-20T08:18:29;30.95;;;18.45;;
80392;SDS011;69719;45.544;10.218;2023-07-20T08:20:55;29.52;;;19.25;;
80392;SDS011;69719;45.544;10.218;2023-07-20T08:23:20;31.42;;;19.63;;
80392;SDS011;69719;45.544;10.218;2023-07-20T08:25:46;29.90;;;17.67;;
80392;SDS011;69719;45.544;10.218;2023-07-20T08:28:15;30.70;;;18.65;;
80392;SDS011;69719;45.544;10.218;2023-07-20T08:30:42;29.20;;;18.48;;
80392;SDS011;69719;45.544;10.218;2023-07-20T08:33:15;29.92;;;18.48;;
80392;SDS011;69719;45.544;10.218;2023-07-20T08:35:44;33.92;;;20.05;;
80392;SDS011;69719;45.544;10.218;2023-07-20T08:38:12;31.83;;;20.25;;
80392;SDS011;69719;45.544;10.218;2023-07-20T08:40:42;31.13;;;18.88;;
80392;SDS011;69719;45.544;10.218;2023-07-20T08:43:13;33.10;;;19.33;;
80392;SDS011;69719;45.544;10.218;2023-07-20T08:45:41;26.85;;;15.02;;
80392;SDS011;69719;45.544;10.218;2023-07-20T08:48:10;26.60;;;15.07;;
80392;SDS011;69719;45.544;10.218;2023-07-20T08:50:37;25.25;;;15.15;;
80392;SDS011;69719;45.544;10.218;2023-07-20T08:53:03;27.33;;;14.15;;
80392;SDS011;69719;45.544;10.218;2023-07-20T08:55:29;29.60;;;14.57;;
80392;SDS011;69719;45.544;10.218;2023-07-20T08:57:55;25.33;;;14.23;;
80392;SDS011;69719;45.544;10.218;2023-07-20T09:00:22;25.48;;;14.73;;
80392;SDS011;69719;45.544;10.218;2023-07-20T09:02:50;25.23;;;13.93;;
80392;SDS011;69719;45.544;10.218;2023-07-20T09:05:17;25.00;;;14.52;;
80392;SDS011;69719;45.544;10.218;2023-07-20T09:07:43;27.58;;;12.35;;
80392;SDS011;69719;45.544;10.218;2023-07-20T09:10:09;26.17;;;13.68;;
80392;SDS011;69719;45.544;10.218;2023-07-20T09:12:36;25.95;;;14.18;;
80392;SDS011;69719;45.544;10.218;2023-07-20T09:15:03;22.70;;;13.25;;
80392;SDS011;69719;45.544;10.218;2023-07-20T09:17:29;23.35;;;13.48;;
80392;SDS011;69719;45.544;10.218;2023-07-20T09:19:55;20.98;;;11.93;;
80392;SDS011;69719;45.544;10.218;2023-07-20T09:22:21;22.33;;;13.10;;
80392;SDS011;69719;45.544;10.218;2023-07-20T09:24:46;27.63;;;14.45;;
80392;SDS011;69719;45.544;10.218;2023-07-20T09:27:12;24.08;;;13.02;;
80392;SDS011;69719;45.544;10.218;2023-07-20T09:29:53;20.58;;;13.48;;
80392;SDS011;69719;45.544;10.218;2023-07-20T09:32:19;23.77;;;14.18;;
80392;SDS011;69719;45.544;10.218;2023-07-20T09:34:46;21.58;;;12.02;;
80392;SDS011;69719;45.544;10.218;2023-07-20T09:37:12;20.40;;;11.70;;
80392;SDS011;69719;45.544;10.218;2023-07-20T09:39:44;22.60;;;12.32;;
80392;SDS011;69719;45.544;10.218;2023-07-20T09:44:39;25.77;;;13.80;;
80392;SDS011;69719;45.544;10.218;2023-07-20T09:47:06;24.42;;;13.85;;
80392;SDS011;69719;45.544;10.218;2023-07-20T09:49:31;24.70;;;12.25;;
80392;SDS011;69719;45.544;10.218;2023-07-20T09:51:57;24.90;;;17.00;;
80392;SDS011;69719;45.544;10.218;2023-07-20T09:54:25;18.73;;;10.63;;
80392;SDS011;69719;45.544;10.218;2023-07-20T09:56:53;22.90;;;12.82;;
80392;SDS011;69719;45.544;10.218;2023-07-20T09:59:19;24.33;;;11.45;;
80392;SDS011;69719;45.544;10.218;2023-07-20T10:01:44;18.90;;;11.60;;
80392;SDS011;69719;45.544;10.218;2023-07-20T10:04:12;19.55;;;11.98;;
80392;SDS011;69719;45.544;10.218;2023-07-20T10:06:42;20.92;;;10.23;;
80392;SDS011;69719;45.544;10.218;2023-07-20T10:09:09;19.02;;;9.98;;
80392;SDS011;69719;45.544;10.218;2023-07-20T10:11:37;20.83;;;9.75;;
80392;SDS011;69719;45.544;10.218;2023-07-20T10:14:08;21.00;;;11.43;;
80392;SDS011;69719;45.544;10.218;2023-07-20T10:16:39;21.88;;;12.18;;
80392;SDS011;69719;45.544;10.218;2023-07-20T10:22:12;17.67;;;10.70;;
80392;SDS011;69719;45.544;10.218;2023-07-20T10:24:44;21.05;;;11.50;;
80392;SDS011;69719;45.544;10.218;2023-07-20T10:27:12;19.92;;;9.15;;
80392;SDS011;69719;45.544;10.218;2023-07-20T10:29:38;17.98;;;9.40;;
80392;SDS011;69719;45.544;10.218;2023-07-20T10:32:05;21.35;;;11.93;;
80392;SDS011;69719;45.544;10.218;2023-07-20T10:34:32;23.58;;;12.15;;
80392;SDS011;69719;45.544;10.218;2023-07-20T10:36:58;24.30;;;12.48;;
80392;SDS011;69719;45.544;10.218;2023-07-20T10:39:27;19.92;;;10.65;;
80392;SDS011;69719;45.544;10.218;2023-07-20T10:42:08;24.38;;;10.30;;
80392;SDS011;69719;45.544;10.218;2023-07-20T10:44:38;17.92;;;10.15;;
80392;SDS011;69719;45.544;10.218;2023-07-20T10:47:09;21.70;;;11.07;;
80392;SDS011;69719;45.544;10.218;2023-07-20T10:49:39;18.50;;;9.38;;
80392;SDS011;69719;45.544;10.218;2023-07-20T10:52:36;22.55;;;11.40;;
80392;SDS011;69719;45.544;10.218;2023-07-20T10:55:15;26.13;;;13.00;;
80392;SDS011;69719;45.544;10.218;2023-07-20T10:57:42;19.25;;;10.77;;
80392;SDS011;69719;45.544;10.218;2023-07-20T11:00:11;20.92;;;10.15;;
80392;SDS011;69719;45.544;10.218;2023-07-20T11:02:44;19.10;;;10.70;;
80392;SDS011;69719;45.544;10.218;2023-07-20T11:08:09;25.45;;;10.40;;
80392;SDS011;69719;45.544;10.218;2023-07-20T11:10:39;18.52;;;9.63;;
80392;SDS011;69719;45.544;10.218;2023-07-20T11:13:18;22.77;;;10.73;;
80392;SDS011;69719;45.544;10.218;2023-07-20T11:15:48;20.48;;;10.63;;
80392;SDS011;69719;45.544;10.218;2023-07-20T11:18:29;18.58;;;10.48;;
80392;SDS011;69719;45.544;10.218;2023-07-20T11:20:56;16.98;;;10.00;;
80392;SDS011;69719;45.544;10.218;2023-07-20T11:23:22;24.67;;;10.18;;
80392;SDS011;69719;45.544;10.218;2023-07-20T11:25:48;25.02;;;11.48;;
80392;SDS011;69719;45.544;10.218;2023-07-20T11:28:15;21.17;;;10.07;;
80392;SDS011;69719;45.544;10.218;2023-07-20T11:30:40;30.40;;;18.23;;
80392;SDS011;69719;45.544;10.218;2023-07-20T11:33:08;23.50;;;11.80;;
80392;SDS011;69719;45.544;10.218;2023-07-20T11:35:43;22.65;;;11.65;;
80392;SDS011;69719;45.544;10.218;2023-07-20T11:38:11;25.98;;;11.45;;
80392;SDS011;69719;45.544;10.218;2023-07-20T11:40:42;20.73;;;11.15;;
80392;SDS011;69719;45.544;10.218;2023-07-20T11:43:11;19.83;;;10.18;;
80392;SDS011;69719;45.544;10.218;2023-07-20T11:45:39;21.52;;;10.38;;
80392;SDS011;69719;45.544;10.218;2023-07-20T11:48:05;24.63;;;11.90;;
80392;SDS011;69719;45.544;10.218;2023-07-20T11:50:31;24.55;;;11.93;;
80392;SDS011;69719;45.544;10.218;2023-07-20T11:52:57;23.98;;;12.10;;
80392;SDS011;69719;45.544;10.218;2023-07-20T11:55:23;21.13;;;10.68;;
80392;SDS011;69719;45.544;10.218;2023-07-20T11:58:04;20.40;;;10.40;;
80392;SDS011;69719;45.544;10.218;2023-07-20T12:00:31;18.70;;;10.77;;
80392;SDS011;69719;45.544;10.218;2023-07-20T12:02:58;17.83;;;10.02;;
80392;SDS011;69719;45.544;10.218;2023-07-20T12:05:24;18.25;;;9.98;;
80392;SDS011;69719;45.544;10.218;2023-07-20T12:07:51;20.15;;;10.60;;
80392;SDS011;69719;45.544;10.218;2023-07-20T12:10:22;25.90;;;12.32;;
80392;SDS011;69719;45.544;10.218;2023-07-20T12:12:52;20.30;;;12.63;;
80392;SDS011;69719;45.544;10.218;2023-07-20T12:15:24;18.38;;;10.40;;
80392;SDS011;69719;45.544;10.218;2023-07-20T12:17:56;18.65;;;9.93;;
80392;SDS011;69719;45.544;10.218;2023-07-20T12:20:26;23.75;;;10.30;;
80392;SDS011;69719;45.544;10.218;2023-07-20T12:28:10;18.10;;;8.88;;
80392;SDS011;69719;45.544;10.218;2023-07-20T12:30:37;19.10;;;9.65;;
80392;SDS011;69719;45.544;10.218;2023-07-20T12:33:03;17.23;;;7.93;;
80392;SDS011;69719;45.544;10.218;2023-07-20T12:35:30;21.10;;;8.88;;
80392;SDS011;69719;45.544;10.218;2023-07-20T12:37:56;17.92;;;9.20;;
80392;SDS011;69719;45.544;10.218;2023-07-20T12:40:22;19.45;;;9.25;;
80392;SDS011;69719;45.544;10.218;2023-07-20T12:42:48;17.30;;;9.32;;
80392;SDS011;69719;45.544;10.218;2023-07-20T12:45:14;14.38;;;8.15;;
80392;SDS011;69719;45.544;10.218;2023-07-20T12:47:40;18.13;;;7.93;;
80392;SDS011;69719;45.544;10.218;2023-07-20T12:50:08;19.60;;;7.75;;
80392;SDS011;69719;45.544;10.218;2023-07-20T12:52:37;16.20;;;7.97;;
80392;SDS011;69719;45.544;10.218;2023-07-20T12:55:04;17.13;;;8.40;;
80392;SDS011;69719;45.544;10.218;2023-07-20T12:57:31;21.58;;;8.05;;
80392;SDS011;69719;45.544;10.218;2023-07-20T12:59:56;13.00;;;6.63;;
80392;SDS011;69719;45.544;10.218;2023-07-20T13:02:22;11.30;;;6.50;;
80392;SDS011;69719;45.544;10.218;2023-07-20T13:04:48;44.90;;;40.40;;
80392;SDS011;69719;45.544;10.218;2023-07-20T13:07:13;15.80;;;6.80;;
80392;SDS011;69719;45.544;10.218;2023-07-20T13:09:39;13.25;;;5.72;;
80392;SDS011;69719;45.544;10.218;2023-07-20T13:12:04;12.57;;;5.95;;
80392;SDS011;69719;45.544;10.218;2023-07-20T13:14:30;10.07;;;5.18;;
80392;SDS011;69719;45.544;10.218;2023-07-20T13:16:56;15.82;;;6.68;;
80392;SDS011;69719;45.544;10.218;2023-07-20T13:19:22;12.10;;;6.43;;
80392;SDS011;69719;45.544;10.218;2023-07-20T13:21:47;8.45;;;4.97;;
80392;SDS011;69719;45.544;10.218;2023-07-20T13:24:13;12.95;;;5.43;;
80392;SDS011;69719;45.544;10.218;2023-07-20T13:26:38;7.53;;;4.65;;
80392;SDS011;69719;45.544;10.218;2023-07-20T13:29:04;14.60;;;5.80;;
80392;SDS011;69719;45.544;10.218;2023-07-20T13:31:29;10.48;;;4.97;;
80392;SDS011;69719;45.544;10.218;2023-07-20T13:33:55;16.33;;;6.35;;
80392;SDS011;69719;45.544;10.218;2023-07-20T13:36:22;12.43;;;5.53;;
80392;SDS011;69719;45.544;10.218;2023-07-20T13:38:48;10.43;;;5.57;;
80392;SDS011;69719;45.544;10.218;2023-07-20T13:41:14;9.50;;;4.28;;
80392;SDS011;69719;45.544;10.218;2023-07-20T13:43:41;10.52;;;4.65;;
80392;SDS011;69719;45.544;10.218;2023-07-20T13:46:07;9.88;;;4.72;;
80392;SDS011;69719;45.544;10.218;2023-07-20T13:48:32;10.40;;;4.50;;
80392;SDS011;69719;45.544;10.218;2023-07-20T13:50:58;12.45;;;5.13;;
80392;SDS011;69719;45.544;10.218;2023-07-20T13:53:23;13.00;;;6.20;;
80392;SDS011;69719;45.544;10.218;2023-07-20T13:55:49;9.00;;;4.72;;
80392;SDS011;69719;45.544;10.218;2023-07-20T13:58:14;10.00;;;5.18;;
80392;SDS011;69719;45.544;10.218;2023-07-20T14:00:40;10.63;;;4.88;;
80392;SDS011;69719;45.544;10.218;2023-07-20T14:03:09;10.55;;;4.78;;
80392;SDS011;69719;45.544;10.218;2023-07-20T14:05:38;10.77;;;4.78;;
80392;SDS011;69719;45.544;10.218;2023-07-20T14:08:04;10.82;;;4.38;;
80392;SDS011;69719;45.544;10.218;2023-07-20T14:10:30;7.13;;;4.65;;
80392;SDS011;69719;45.544;10.218;2023-07-20T14:12:55;9.73;;;4.38;;
80392;SDS011;69719;45.544;10.218;2023-07-20T14:15:21;12.52;;;5.07;;
80392;SDS011;69719;45.544;10.218;2023-07-20T14:17:46;9.80;;;4.63;;
80392;SDS011;69719;45.544;10.218;2023-07-20T14:20:12;10.82;;;4.32;;
80392;SDS011;69719;45.544;10.218;2023-07-20T14:22:37;11.52;;;4.88;;
80392;SDS011;69719;45.544;10.218;2023-07-20T14:25:03;15.80;;;8.75;;
80392;SDS011;69719;45.544;10.218;2023-07-20T14:27:29;9.98;;;4.63;;
80392;SDS011;69719;45.544;10.218;2023-07-20T14:29:55;13.20;;;5.25;;
80392;SDS011;69719;45.544;10.218;2023-07-20T14:32:24;10.35;;;5.35;;